This is the latest recevied weather packets stored in our database for station/object 9A7DI-13. If no packets are shown the sender has not sent any weather packets the latest 10 day(s).
| Time | Temp. | Humidity | Pressure | Rain* | Wind** | Luminosity | Snow |
|---|---|---|---|---|---|---|---|
| 1777870632 | 11.67° C | 56% | 1027.1 hPa | - | - | - | - |
| 1777870031 | 11.11° C | 59% | 1027.2 hPa | - | - | - | - |
| 1777869432 | 9.44° C | 63% | 1027.2 hPa | - | - | - | - |
| 1777868832 | 7.78° C | 68% | 1027.3 hPa | - | - | - | - |
| 1777868232 | 6.67° C | 69% | 1027.2 hPa | - | - | - | - |
| 1777867632 | 6.11° C | 70% | 1027.2 hPa | - | - | - | - |
| 1777867032 | 6.11° C | 71% | 1027.2 hPa | - | - | - | - |
| 1777866432 | 5.56° C | 71% | 1027.2 hPa | - | - | - | - |
| 1777865832 | 6.11° C | 71% | 1027.1 hPa | - | - | - | - |
| 1777865232 | 6.11° C | 71% | 1027 hPa | - | - | - | - |
| 1777864632 | 6.11° C | 71% | 1027 hPa | - | - | - | - |
| 1777864032 | 6.11° C | 71% | 1027 hPa | - | - | - | - |
| 1777863432 | 6.11° C | 72% | 1027 hPa | - | - | - | - |
| 1777862832 | 6.11° C | 71% | 1027.1 hPa | - | - | - | - |
| 1777862232 | 6.11° C | 73% | 1027 hPa | - | - | - | - |
| 1777861632 | 6.67° C | 70% | 1027.1 hPa | - | - | - | - |
| 1777861032 | 7.22° C | 68% | 1027 hPa | - | - | - | - |
| 1777860432 | 7.22° C | 67% | 1026.9 hPa | - | - | - | - |
| 1777859832 | 7.78° C | 66% | 1026.8 hPa | - | - | - | - |
| 1777859232 | 7.78° C | 64% | 1026.8 hPa | - | - | - | - |
| 1777858632 | 8.33° C | 63% | 1026.8 hPa | - | - | - | - |
| 1777858032 | 8.33° C | 62% | 1026.8 hPa | - | - | - | - |
| 1777857432 | 8.89° C | 63% | 1026.9 hPa | - | - | - | - |
| 1777856832 | 8.89° C | 63% | 1026.9 hPa | - | - | - | - |
| 1777856232 | 8.33° C | 64% | 1026.8 hPa | - | - | - | - |
* Rain since midnight (hover to see other rain measurements)
** Current wind speed in m/s (hover to see current wind gust speed)